Time;durP1;ratioP1;P1;durP2;ratioP2;P2;SDS_P1;SDS_P2;PMS_P1;PMS_P2;Temp;Humidity;BMP_temperature;BMP_pressure;BME280_temperature;BME280_humidity;BME280_pressure;Samples;Min_cycle;Max_cycle;Signal;HPM_P1;HPM_P2
2024/01/25 00:01:09;;;;;;;40.13;19.23;;;;;;;1.78;79.73;95756.50;5024752;28;20068;-83
2024/01/25 00:03:35;;;;;;;46.15;18.45;;;;;;;2.06;78.96;95804.09;5042699;28;20052;-83
2024/01/25 00:06:01;;;;;;;37.00;18.35;;;;;;;1.79;78.06;95753.69;5042884;28;20052;-82
2024/01/25 00:08:26;;;;;;;39.97;18.83;;;;;;;1.77;77.46;95753.06;5041049;28;20068;-82
2024/01/25 00:10:52;;;;;;;43.60;18.65;;;;;;;1.42;78.06;95707.28;5062320;28;20492;-82
2024/01/25 00:13:17;;;;;;;36.10;17.85;;;;;;;2.05;78.15;95776.38;5044129;28;20140;-82
2024/01/25 00:15:43;;;;;;;35.72;17.48;;;;;;;1.60;77.66;95689.16;5042938;28;20111;-82
2024/01/25 00:18:08;;;;;;;35.50;16.20;;;;;;;1.37;76.79;95637.34;5026366;28;20037;-82
2024/01/25 00:20:34;;;;;;;33.90;16.60;;;;;;;1.43;76.22;95644.38;5027077;28;20090;-82
2024/01/25 00:22:59;;;;;;;32.28;15.82;;;;;;;1.45;76.13;95631.09;5042597;28;20047;-82
2024/01/25 00:25:25;;;;;;;31.70;15.70;;;;;;;1.95;75.38;95707.97;5042903;28;20453;-82
2024/01/25 00:27:51;;;;;;;29.40;14.63;;;;;;;1.35;73.72;95602.78;5026067;28;20064;-82
2024/01/25 00:30:16;;;;;;;35.55;15.20;;;;;;;0.96;73.12;95521.91;5043358;28;20071;-82
2024/01/25 00:32:42;;;;;;;31.83;14.95;;;;;;;2.22;73.84;95725.16;5026287;28;20121;-81
2024/01/25 00:35:10;;;;;;;35.40;13.80;;;;;;;1.98;73.52;95665.72;5026303;28;20040;-82
2024/01/25 00:37:37;;;;;;;26.10;13.07;;;;;;;2.01;72.80;95654.81;5043149;28;20063;-82
2024/01/25 00:40:03;;;;;;;31.13;14.63;;;;;;;2.46;73.65;95694.84;5026505;28;20040;-81
2024/01/25 00:42:28;;;;;;;37.55;15.05;;;;;;;2.16;74.95;95647.50;5026426;28;20529;-82
2024/01/25 00:44:54;;;;;;;36.25;16.23;;;;;;;2.02;74.75;95606.72;5026068;28;20147;-82
2024/01/25 00:47:20;;;;;;;30.42;14.18;;;;;;;2.44;73.41;95675.13;5049420;28;20031;-82
2024/01/25 00:49:46;;;;;;;36.53;15.95;;;;;;;2.09;73.72;95631.03;5064414;28;20059;-82
2024/01/25 00:52:12;;;;;;;35.45;14.75;;;;;;;2.41;72.87;95680.78;5062680;28;20035;-81
2024/01/25 00:54:37;;;;;;;32.63;15.27;;;;;;;1.34;73.32;95519.34;5042291;28;20497;-82
2024/01/25 00:57:03;;;;;;;34.38;15.18;;;;;;;2.23;72.95;95678.84;5040762;28;20041;-82
2024/01/25 00:59:29;;;;;;;35.47;16.02;;;;;;;1.22;72.98;95516.56;5038778;28;20037;-81
2024/01/25 01:01:55;;;;;;;33.85;16.48;;;;;;;2.26;73.08;95671.41;5022188;28;20406;-82
2024/01/25 01:04:21;;;;;;;39.83;17.10;;;;;;;2.63;73.67;95713.47;5022009;28;20185;-82
2024/01/25 01:06:47;;;;;;;37.22;16.10;;;;;;;2.56;73.23;95692.56;5055552;28;20028;-82
2024/01/25 01:09:13;;;;;;;35.90;16.30;;;;;;;2.24;73.60;95649.06;5020691;28;20025;-82
2024/01/25 01:11:39;;;;;;;37.40;16.55;;;;;;;2.06;73.63;95638.50;5038796;28;20526;-82
2024/01/25 01:14:04;;;;;;;35.35;17.13;;;;;;;2.23;74.23;95647.44;5038849;28;20047;-82
2024/01/25 01:16:32;;;;;;;36.70;16.65;;;;;;;1.96;73.54;95577.97;5038723;28;20104;-83
2024/01/25 01:19:05;;;;;;;33.53;15.88;;;;;;;2.43;73.25;95658.63;5021783;28;20037;-83
2024/01/25 01:21:30;;;;;;;33.83;15.27;;;;;;;1.85;72.75;95563.75;5042468;28;20514;-83
2024/01/25 01:23:56;;;;;;;33.55;15.80;;;;;;;1.84;72.17;95543.81;5060156;28;20062;-83
2024/01/25 01:26:22;;;;;;;24.92;13.02;;;;;;;2.10;72.37;95574.28;5043146;28;20036;-83
2024/01/25 01:28:47;;;;;;;39.03;15.23;;;;;;;1.99;72.09;95554.81;5041745;28;20036;-83
2024/01/25 01:31:13;;;;;;;34.72;12.82;;;;;;;2.56;71.33;95634.16;5021489;28;20060;-83
2024/01/25 01:33:38;;;;;;;30.55;13.77;;;;;;;2.52;71.58;95617.25;5024994;28;20044;-83
2024/01/25 01:36:04;;;;;;;30.08;13.27;;;;;;;0.61;71.33;95313.34;5042416;28;20186;-83
2024/01/25 01:38:30;;;;;;;28.83;12.93;;;;;;;2.33;71.75;95566.66;5028418;28;20040;-83
2024/01/25 01:40:55;;;;;;;30.88;12.68;;;;;;;2.57;71.82;95592.06;5022163;28;20049;-83
2024/01/25 01:43:23;;;;;;;40.85;13.93;;;;;;;2.56;72.51;95598.31;5040060;28;20043;-83
2024/01/25 01:45:50;;;;;;;37.15;15.20;;;;;;;2.78;72.52;95622.31;5026650;28;20048;-83
2024/01/25 01:48:16;;;;;;;35.92;14.45;;;;;;;2.87;72.38;95636.75;5030208;28;20112;-83
2024/01/25 01:50:45;;;;;;;31.60;14.45;;;;;;;2.22;72.47;95518.41;5025182;28;20103;-83
2024/01/25 01:53:10;;;;;;;43.65;17.58;;;;;;;2.83;72.52;95590.22;5033392;28;20053;-82
2024/01/25 01:55:36;;;;;;;39.13;17.02;;;;;;;3.00;72.32;95615.69;5060050;28;20040;-83
2024/01/25 01:58:02;;;;;;;38.47;18.23;;;;;;;3.05;72.56;95615.03;5040932;28;20055;-83
2024/01/25 02:00:29;;;;;;;43.85;19.65;;;;;;;2.58;73.39;95564.06;5040435;28;20123;-83
2024/01/25 02:02:54;;;;;;;44.50;18.02;;;;;;;1.48;73.10;95404.09;5057384;28;20117;-83
2024/01/25 02:05:20;;;;;;;45.22;18.88;;;;;;;2.67;72.89;95591.59;5030335;28;20432;-83
2024/01/25 02:07:45;;;;;;;43.78;19.63;;;;;;;2.79;73.34;95615.25;5042040;28;20044;-83
2024/01/25 02:10:11;;;;;;;42.53;19.40;;;;;;;2.29;73.42;95526.22;5075632;28;20066;-83
2024/01/25 02:12:37;;;;;;;48.75;19.20;;;;;;;2.78;73.31;95593.50;5058396;28;20058;-83
2024/01/25 02:15:03;;;;;;;49.08;19.05;;;;;;;2.69;73.24;95579.06;5058824;28;20083;-83
2024/01/25 02:17:28;;;;;;;46.75;20.63;;;;;;;2.23;72.77;95498.28;5059250;28;20116;-83
2024/01/25 02:19:54;;;;;;;46.22;19.10;;;;;;;2.51;73.06;95543.19;5058568;28;20453;-83
2024/01/25 02:22:20;;;;;;;50.90;22.08;;;;;;;2.69;73.26;95569.41;5058844;28;20130;-83
2024/01/25 02:24:45;;;;;;;48.55;20.58;;;;;;;2.17;73.16;95486.88;5059052;28;20036;-83
2024/01/25 02:27:11;;;;;;;48.95;20.13;;;;;;;2.93;72.98;95601.84;5042775;28;20040;-83
2024/01/25 02:29:37;;;;;;;48.28;20.58;;;;;;;2.97;73.13;95592.53;5075221;28;20047;-83
2024/01/25 02:32:03;;;;;;;47.13;18.90;;;;;;;2.72;72.72;95565.56;5058632;28;20056;-83
2024/01/25 02:34:30;;;;;;;42.42;20.00;;;;;;;1.94;73.22;95442.97;5058831;28;20098;-83
2024/01/25 02:36:55;;;;;;;46.05;20.25;;;;;;;1.46;72.83;95355.63;5058483;28;20109;-83
2024/01/25 02:39:21;;;;;;;45.40;19.33;;;;;;;2.06;72.86;95455.38;5041599;28;20453;-83
2024/01/25 02:41:46;;;;;;;48.47;18.33;;;;;;;2.79;72.83;95566.28;5042338;28;20043;-83
2024/01/25 02:44:12;;;;;;;40.13;17.98;;;;;;;2.23;72.82;95479.97;5042909;28;20043;-84
2024/01/25 02:46:38;;;;;;;46.03;17.83;;;;;;;2.50;73.79;95535.53;5042575;28;20052;-84
2024/01/25 02:49:04;;;;;;;45.65;18.88;;;;;;;2.70;74.07;95560.53;5058841;28;20032;-84
2024/01/25 02:51:29;;;;;;;40.42;19.13;;;;;;;2.54;74.89;95545.34;5042175;28;20037;-84
2024/01/25 02:53:55;;;;;;;48.15;19.38;;;;;;;2.63;74.36;95566.84;5054457;28;20052;-84
2024/01/25 02:56:20;;;;;;;41.25;18.70;;;;;;;2.29;74.52;95511.31;5079653;28;20495;-84
2024/01/25 02:58:46;;;;;;;42.95;18.50;;;;;;;2.25;74.73;95510.16;5063268;28;20498;-83
2024/01/25 03:01:11;;;;;;;42.28;17.10;;;;;;;2.71;74.43;95580.47;5080897;28;20036;-84
2024/01/25 03:03:38;;;;;;;42.45;19.20;;;;;;;2.56;74.37;95558.25;5084659;28;20690;-84
2024/01/25 03:06:05;;;;;;;41.78;17.75;;;;;;;1.90;74.21;95454.88;5084574;28;20072;-82
2024/01/25 03:08:31;;;;;;;39.15;18.08;;;;;;;2.03;74.71;95485.38;5068197;28;20039;-82
2024/01/25 03:10:56;;;;;;;39.22;18.35;;;;;;;2.55;74.49;95588.03;5084924;28;20503;-82
2024/01/25 03:13:22;;;;;;;39.25;16.75;;;;;;;2.49;74.96;95579.25;5084626;28;20134;-82
2024/01/25 03:15:48;;;;;;;39.30;17.58;;;;;;;2.08;75.90;95510.88;5065017;28;20046;-83
2024/01/25 03:18:13;;;;;;;33.80;15.25;;;;;;;2.32;75.77;95557.22;5063430;28;20048;-82
2024/01/25 03:20:39;;;;;;;34.40;13.95;;;;;;;1.84;75.95;95468.78;5080757;28;20040;-82
2024/01/25 03:23:04;;;;;;;29.55;11.77;;;;;;;2.25;76.62;95502.31;5047218;28;20036;-82
2024/01/25 03:25:31;;;;;;;24.48;11.02;;;;;;;2.48;77.74;95514.00;5063781;28;20040;-83
2024/01/25 03:27:56;;;;;;;11.65;6.70;;;;;;;2.59;78.18;95471.41;5064525;28;20032;-83
2024/01/25 03:30:22;;;;;;;11.30;4.85;;;;;;;3.25;77.69;95547.50;5064186;28;20040;-82
2024/01/25 03:32:47;;;;;;;7.85;3.45;;;;;;;3.56;77.11;95557.03;5064680;28;20112;-82
2024/01/25 03:35:13;;;;;;;4.32;2.30;;;;;;;3.70;76.82;95537.47;5063849;28;20095;-82
2024/01/25 03:37:39;;;;;;;4.28;1.73;;;;;;;3.63;75.89;95509.72;5045049;28;20040;-83
2024/01/25 03:40:05;;;;;;;4.10;1.40;;;;;;;4.05;75.28;95523.66;5044621;28;20119;-83
2024/01/25 03:42:31;;;;;;;2.80;1.55;;;;;;;4.22;74.64;95509.69;5060996;28;20051;-83
2024/01/25 03:44:56;;;;;;;3.75;1.38;;;;;;;4.36;74.53;95504.22;5077467;28;20036;-83
2024/01/25 03:47:22;;;;;;;3.08;1.48;;;;;;;4.50;73.81;95508.25;5044155;28;20148;-83
2024/01/25 03:49:47;;;;;;;4.03;1.52;;;;;;;4.38;73.66;95494.28;5044175;28;20614;-83
2024/01/25 03:52:13;;;;;;;7.40;1.50;;;;;;;4.72;73.57;95553.97;5044266;28;20123;-83
2024/01/25 03:54:39;;;;;;;3.67;1.67;;;;;;;3.80;72.63;95395.28;5060215;28;20035;-83
2024/01/25 03:57:04;;;;;;;2.58;1.50;;;;;;;4.52;72.54;95475.47;5077146;28;20157;-83
2024/01/25 03:59:30;;;;;;;2.90;1.42;;;;;;;4.59;72.12;95481.41;5060136;28;20101;-83
2024/01/25 04:01:56;;;;;;;3.63;1.65;;;;;;;4.47;71.82;95483.25;5044158;28;20036;-83
2024/01/25 04:04:22;;;;;;;4.63;1.92;;;;;;;4.60;72.26;95511.91;5043397;28;20479;-83
2024/01/25 04:06:48;;;;;;;5.85;1.80;;;;;;;4.60;71.77;95498.75;5045349;28;20511;-84
2024/01/25 04:09:15;;;;;;;2.60;1.60;;;;;;;4.62;72.10;95516.94;5047556;28;20063;-82
2024/01/25 04:11:40;;;;;;;6.13;1.80;;;;;;;4.01;71.71;95407.88;5064471;28;20040;-83
2024/01/25 04:14:06;;;;;;;8.32;2.40;;;;;;;4.60;71.93;95506.66;5047830;28;20499;-82
2024/01/25 04:16:32;;;;;;;5.50;2.60;;;;;;;3.94;71.46;95396.69;5048316;28;20040;-83
2024/01/25 04:18:58;;;;;;;7.53;2.97;;;;;;;4.02;71.30;95429.66;5047232;28;20120;-82
2024/01/25 04:21:23;;;;;;;8.65;3.10;;;;;;;4.30;71.20;95484.13;5064210;28;20521;-83
2024/01/25 04:23:49;;;;;;;8.73;2.95;;;;;;;3.78;71.18;95406.00;5064964;28;20047;-82
2024/01/25 04:26:16;;;;;;;6.68;3.00;;;;;;;3.83;71.36;95421.06;5065500;28;20033;-82
2024/01/25 04:28:42;;;;;;;6.47;2.88;;;;;;;4.33;71.45;95512.56;5064904;28;20040;-82
2024/01/25 04:31:07;;;;;;;10.48;3.70;;;;;;;3.83;71.43;95457.78;5081305;28;20043;-83
2024/01/25 04:33:33;;;;;;;12.88;3.60;;;;;;;3.53;71.88;95417.66;5047679;28;20050;-82
2024/01/25 04:35:58;;;;;;;9.00;3.60;;;;;;;3.30;71.48;95368.56;5047701;28;20044;-83
2024/01/25 04:38:24;;;;;;;9.82;3.70;;;;;;;3.44;71.58;95410.13;5047578;28;20153;-83
2024/01/25 04:40:49;;;;;;;5.75;2.90;;;;;;;3.69;71.82;95459.00;5064048;28;20086;-83
2024/01/25 04:43:15;;;;;;;10.98;3.70;;;;;;;3.76;71.47;95491.19;5047857;28;20070;-82
2024/01/25 04:45:41;;;;;;;10.20;3.53;;;;;;;2.68;71.50;95341.78;5047414;28;20482;-84
2024/01/25 04:48:06;;;;;;;10.98;3.28;;;;;;;3.02;72.51;95422.38;5061890;28;20032;-85
2024/01/25 04:50:32;;;;;;;8.40;3.05;;;;;;;3.55;73.02;95516.09;5061913;28;20046;-85
2024/01/25 04:52:58;;;;;;;6.90;3.28;;;;;;;3.64;72.53;95548.84;5078326;28;20048;-85
2024/01/25 04:55:23;;;;;;;8.10;3.15;;;;;;;3.20;73.06;95488.91;5062373;28;20051;-85
2024/01/25 04:57:53;;;;;;;8.15;3.38;;;;;;;3.56;73.07;95543.09;5044778;28;20075;-85
2024/01/25 05:00:20;;;;;;;11.35;3.63;;;;;;;3.53;73.28;95552.22;5063166;28;20048;-86
2024/01/25 05:02:45;;;;;;;24.38;5.78;;;;;;;3.18;73.47;95525.00;5062874;28;20138;-85
2024/01/25 05:05:11;;;;;;;13.27;4.65;;;;;;;3.31;73.34;95551.84;5057588;28;20020;-85
2024/01/25 05:07:36;;;;;;;11.57;4.90;;;;;;;3.23;74.34;95564.44;5060820;28;20032;-85
2024/01/25 05:10:02;;;;;;;7.60;3.75;;;;;;;3.11;73.48;95538.19;5061459;28;20035;-86
2024/01/25 05:12:27;;;;;;;9.00;4.35;;;;;;;3.03;73.36;95517.50;5045800;28;20762;-85
2024/01/25 05:14:53;;;;;;;7.65;3.88;;;;;;;3.12;73.12;95542.41;5058507;28;20029;-85
2024/01/25 05:17:18;;;;;;;8.20;3.40;;;;;;;2.30;72.24;95389.91;5022813;28;20047;-84
2024/01/25 05:19:44;;;;;;;10.15;3.55;;;;;;;3.55;72.28;95596.56;5019792;28;20150;-83
2024/01/25 05:22:10;;;;;;;13.63;4.30;;;;;;;3.42;72.17;95585.22;5050843;28;20050;-84
2024/01/25 05:24:36;;;;;;;13.85;4.10;;;;;;;3.42;72.43;95593.09;5051531;28;20629;-84
2024/01/25 05:27:02;;;;;;;12.38;4.60;;;;;;;2.60;72.39;95452.84;5050829;28;20052;-84
2024/01/25 05:29:27;;;;;;;12.43;4.63;;;;;;;2.31;72.44;95414.28;5043837;28;20058;-84
2024/01/25 05:31:53;;;;;;;15.85;4.18;;;;;;;2.93;71.46;95501.47;5038833;28;20093;-84
2024/01/25 05:34:18;;;;;;;7.68;3.65;;;;;;;1.99;70.84;95335.06;5019176;28;20127;-83
2024/01/25 05:36:44;;;;;;;7.25;2.97;;;;;;;2.10;70.69;95334.38;5040806;28;20040;-83
2024/01/25 05:39:09;;;;;;;5.90;2.90;;;;;;;3.95;70.38;95631.81;5039284;28;20054;-84
2024/01/25 05:41:35;;;;;;;7.75;2.47;;;;;;;3.65;69.34;95550.47;5052104;28;20567;-84
2024/01/25 05:44:00;;;;;;;5.63;2.42;;;;;;;3.57;69.45;95544.72;5024469;28;20056;-83
2024/01/25 05:46:26;;;;;;;5.10;2.33;;;;;;;3.77;68.80;95559.16;5041138;28;20068;-83
2024/01/25 05:48:52;;;;;;;8.15;4.22;;;;;;;3.60;69.42;95539.81;5051312;28;20038;-83
2024/01/25 05:51:17;;;;;;;7.72;3.75;;;;;;;3.38;68.51;95505.41;5028501;28;20078;-85
2024/01/25 05:53:43;;;;;;;11.65;2.60;;;;;;;3.62;67.84;95527.28;5030751;28;20048;-85
2024/01/25 05:56:08;;;;;;;5.30;2.47;;;;;;;4.18;67.86;95634.56;5038698;28;20110;-83
2024/01/25 05:58:34;;;;;;;5.32;2.63;;;;;;;4.07;68.57;95600.38;5048963;28;20072;-83
2024/01/25 06:01:00;;;;;;;4.90;2.05;;;;;;;4.30;67.74;95602.28;5047161;28;20044;-84
2024/01/25 06:03:25;;;;;;;4.20;2.25;;;;;;;3.36;67.55;95462.06;5054115;28;20500;-85
2024/01/25 06:05:51;;;;;;;4.95;2.38;;;;;;;3.74;67.26;95546.50;5040165;28;20585;-84
2024/01/25 06:08:16;;;;;;;5.85;3.00;;;;;;;4.47;67.79;95645.25;5051471;28;20050;-85
2024/01/25 06:10:43;;;;;;;9.40;3.25;;;;;;;4.33;67.30;95628.91;5056846;28;20415;-84
2024/01/25 06:13:09;;;;;;;11.30;3.15;;;;;;;4.31;67.66;95625.69;5062817;28;20050;-86
2024/01/25 06:15:34;;;;;;;9.35;3.03;;;;;;;4.32;67.89;95637.00;5044742;28;20494;-88
2024/01/25 06:18:00;;;;;;;7.63;3.20;;;;;;;2.28;67.85;95305.63;5073428;28;20059;-87
2024/01/25 06:20:26;;;;;;;5.88;3.17;;;;;;;3.90;68.09;95589.69;5059244;28;20036;-86
2024/01/25 06:22:51;;;;;;;10.18;3.03;;;;;;;4.22;68.17;95617.31;5052914;28;20485;-87
2024/01/25 06:25:17;;;;;;;15.15;3.33;;;;;;;2.10;67.74;95284.66;5033262;28;20045;-86
2024/01/25 06:27:43;;;;;;;7.53;3.28;;;;;;;3.88;68.53;95589.13;5051551;28;20221;-86
2024/01/25 06:30:09;;;;;;;8.05;4.03;;;;;;;3.11;68.08;95449.09;5049696;28;20044;-85
2024/01/25 06:32:34;;;;;;;8.02;3.55;;;;;;;4.21;67.85;95628.03;5044647;28;20111;-87
2024/01/25 06:35:00;;;;;;;8.43;4.13;;;;;;;4.38;68.11;95659.72;5062642;28;20019;-85
2024/01/25 06:37:26;;;;;;;7.32;3.20;;;;;;;2.35;68.64;95338.75;5035166;28;20073;-87
2024/01/25 06:39:54;;;;;;;13.30;3.58;;;;;;;1.18;68.05;95157.50;5038331;28;20232;-88
2024/01/25 06:42:20;;;;;;;6.50;2.70;;;;;;;1.77;68.18;95260.66;5056040;28;20043;-87
2024/01/25 06:44:45;;;;;;;8.85;3.58;;;;;;;3.85;68.65;95605.28;5041939;28;20050;-87
2024/01/25 06:47:11;;;;;;;11.23;3.00;;;;;;;3.27;68.72;95477.31;5039036;28;20036;-86
2024/01/25 06:49:37;;;;;;;12.65;4.07;;;;;;;3.28;68.59;95481.50;5052112;28;20068;-86
2024/01/25 06:52:03;;;;;;;7.80;3.35;;;;;;;2.27;68.67;95324.16;5030571;28;20059;-86
2024/01/25 06:54:31;;;;;;;11.27;3.47;;;;;;;3.99;68.72;95577.06;5056013;28;20048;-86
2024/01/25 06:56:56;;;;;;;7.47;2.90;;;;;;;4.41;68.31;95614.66;5061277;28;20029;-87
2024/01/25 06:59:23;;;;;;;14.00;3.60;;;;;;;2.67;67.93;95342.81;5038395;28;20039;-85
2024/01/25 07:01:49;;;;;;;8.00;3.95;;;;;;;3.93;68.90;95551.72;5042224;28;20036;-86
2024/01/25 07:04:14;;;;;;;6.57;3.20;;;;;;;2.25;67.91;95247.66;5040488;28;20104;-85
2024/01/25 07:06:40;;;;;;;11.85;3.15;;;;;;;4.72;67.61;95631.97;5044250;28;20532;-86
2024/01/25 07:09:06;;;;;;;10.52;2.22;;;;;;;3.66;67.49;95473.34;5057313;28;20054;-86
2024/01/25 07:11:32;;;;;;;10.90;3.47;;;;;;;2.78;67.52;95305.41;5039000;28;20046;-87
2024/01/25 07:13:57;;;;;;;11.25;3.15;;;;;;;4.86;67.44;95633.38;5023996;28;20043;-85
2024/01/25 07:16:23;;;;;;;9.23;3.58;;;;;;;4.52;67.53;95562.13;5063312;28;20041;-85
2024/01/25 07:18:49;;;;;;;12.00;3.38;;;;;;;4.37;67.23;95537.34;5039421;28;20105;-85
2024/01/25 07:21:15;;;;;;;8.90;4.53;;;;;;;4.77;66.91;95587.44;5043895;28;20040;-85
2024/01/25 07:23:40;;;;;;;9.63;3.58;;;;;;;5.01;66.73;95633.72;5041250;28;20052;-85
2024/01/25 07:26:06;;;;;;;8.05;2.58;;;;;;;4.89;66.29;95612.69;5075535;28;20059;-86
2024/01/25 07:28:31;;;;;;;9.38;2.88;;;;;;;4.74;66.02;95566.84;5039746;28;20080;-87
2024/01/25 07:30:57;;;;;;;9.90;2.80;;;;;;;5.12;66.22;95626.88;5059026;28;20054;-86
2024/01/25 07:33:22;;;;;;;13.65;3.72;;;;;;;5.11;66.57;95622.66;5036860;28;20509;-87
2024/01/25 07:35:48;;;;;;;7.63;2.80;;;;;;;3.82;66.29;95422.88;5059737;28;20067;-87
2024/01/25 07:38:17;;;;;;;15.57;3.40;;;;;;;5.06;66.97;95641.72;5054980;28;20062;-86
2024/01/25 07:40:42;;;;;;;10.18;3.25;;;;;;;4.48;66.32;95531.31;5056589;28;20040;-87
2024/01/25 07:43:08;;;;;;;13.20;3.38;;;;;;;4.41;66.23;95530.63;5044237;28;20123;-87
2024/01/25 07:45:34;;;;;;;14.00;4.72;;;;;;;4.99;65.98;95627.91;5042821;28;20055;-85
2024/01/25 07:47:59;;;;;;;10.50;3.20;;;;;;;5.15;66.34;95658.78;5040707;28;20099;-85
2024/01/25 07:50:25;;;;;;;10.50;3.33;;;;;;;4.16;65.57;95501.91;5036549;28;20299;-84
2024/01/25 07:52:50;;;;;;;7.63;3.15;;;;;;;4.92;66.26;95632.47;5047909;28;20064;-84
2024/01/25 07:55:16;;;;;;;10.55;3.10;;;;;;;4.54;65.37;95578.47;5043065;28;20035;-84
2024/01/25 07:57:42;;;;;;;11.15;4.22;;;;;;;5.09;65.51;95637.84;5038069;28;20104;-85
2024/01/25 08:00:10;;;;;;;8.88;3.03;;;;;;;4.84;65.58;95617.81;5036650;28;20028;-86
2024/01/25 08:02:36;;;;;;;18.67;3.35;;;;;;;5.26;65.54;95668.50;5045665;28;20052;-87
2024/01/25 08:05:08;;;;;;;9.20;3.88;;;;;;;4.61;64.94;95560.78;5062273;28;20467;-88
2024/01/25 08:07:35;;;;;;;16.52;4.38;;;;;;;5.11;65.68;95631.31;5038130;28;20148;-88
2024/01/25 08:10:02;;;;;;;13.80;3.78;;;;;;;2.81;65.07;95283.22;5052433;28;20064;-85
2024/01/25 08:12:28;;;;;;;8.88;3.25;;;;;;;1.07;64.48;94999.69;5047385;28;20041;-86
2024/01/25 08:14:53;;;;;;;13.63;3.67;;;;;;;5.32;63.95;95678.13;5039151;28;20131;-86
2024/01/25 08:17:20;;;;;;;9.05;3.50;;;;;;;5.49;64.82;95662.44;5036670;28;20047;-84
2024/01/25 08:19:47;;;;;;;10.68;4.07;;;;;;;5.36;64.39;95652.94;5044974;28;20059;-83
2024/01/25 08:22:12;;;;;;;15.52;5.40;;;;;;;4.12;64.73;95449.06;5031326;28;20104;-84
2024/01/25 08:24:41;;;;;;;11.38;3.90;;;;;;;4.68;63.79;95529.16;5047152;28;20150;-87
2024/01/25 08:27:10;;;;;;;10.02;3.17;;;;;;;3.38;64.05;95348.09;5057613;28;20033;-85
2024/01/25 08:29:37;;;;;;;17.60;3.42;;;;;;;3.54;63.01;95361.59;5055534;28;20527;-85
2024/01/25 08:32:03;;;;;;;11.63;3.42;;;;;;;3.52;63.44;95389.84;5058123;28;20151;-84
2024/01/25 08:34:28;;;;;;;9.38;3.20;;;;;;;5.65;63.12;95676.72;5040825;28;20060;-84
2024/01/25 08:36:54;;;;;;;15.10;3.58;;;;;;;5.63;62.91;95678.78;5052358;28;20035;-87
2024/01/25 08:39:19;;;;;;;11.82;3.92;;;;;;;5.33;62.88;95626.31;5055567;28;20071;-86
2024/01/25 08:41:46;;;;;;;19.42;4.63;;;;;;;5.29;62.94;95623.34;5058837;28;20057;-83
2024/01/25 08:44:12;;;;;;;12.43;5.40;;;;;;;4.11;61.98;95460.59;5051590;28;20063;-86
2024/01/25 08:46:38;;;;;;;11.18;4.10;;;;;;;5.69;61.40;95681.31;5046572;28;20480;-86
2024/01/25 08:49:08;;;;;;;13.18;4.45;;;;;;;5.65;62.68;95689.88;5032979;28;20040;-84
2024/01/25 08:51:34;;;;;;;11.18;3.70;;;;;;;5.53;62.28;95682.00;5038510;28;20047;-88
2024/01/25 08:54:07;;;;;;;9.75;4.15;;;;;;;4.45;62.21;95511.53;5053180;28;20067;-88
2024/01/25 08:56:33;;;;;;;11.23;3.42;;;;;;;5.02;61.94;95577.50;5040376;28;20059;-89
2024/01/25 08:58:58;;;;;;;11.70;4.22;;;;;;;5.65;61.46;95681.97;5069996;22;20061;-77
2024/01/25 09:01:24;;;;;;;15.02;4.85;;;;;;;5.35;61.75;95634.75;5045003;28;20068;-76
2024/01/25 09:03:49;;;;;;;16.95;4.25;;;;;;;5.43;62.15;95627.31;5047067;28;20520;-76
2024/01/25 09:06:15;;;;;;;14.30;3.78;;;;;;;5.56;61.86;95639.47;5035858;28;20577;-78
2024/01/25 09:08:40;;;;;;;14.85;4.05;;;;;;;5.63;62.33;95655.91;5047402;28;20052;-78
2024/01/25 09:11:06;;;;;;;16.33;4.15;;;;;;;5.76;62.08;95666.19;5021386;28;20048;-78
2024/01/25 09:13:32;;;;;;;13.73;3.47;;;;;;;5.82;61.72;95665.25;5040603;28;20055;-78
2024/01/25 09:15:57;;;;;;;13.20;3.58;;;;;;;5.84;61.67;95680.84;5063058;28;20063;-78
2024/01/25 09:18:23;;;;;;;18.92;4.00;;;;;;;5.60;62.55;95624.78;5053781;28;20208;-78
2024/01/25 09:20:49;;;;;;;21.58;4.07;;;;;;;5.69;62.63;95691.84;5038193;28;20521;-79
2024/01/25 09:23:17;;;;;;;15.95;4.03;;;;;;;5.87;62.33;95684.84;5058445;28;20068;-78
2024/01/25 09:25:44;;;;;;;13.48;3.45;;;;;;;5.64;62.37;95654.91;5044246;28;20048;-79
2024/01/25 09:28:11;;;;;;;7.53;3.15;;;;;;;5.98;61.88;95676.94;5041523;28;20044;-78
2024/01/25 09:30:39;;;;;;;10.70;3.63;;;;;;;5.94;62.22;95678.44;5046123;28;20040;-78
2024/01/25 09:33:05;;;;;;;14.30;4.32;;;;;;;5.45;62.22;95574.50;5051504;28;20753;-78
2024/01/25 09:35:31;;;;;;;13.50;4.30;;;;;;;5.58;62.34;95626.84;5029819;28;20036;-78
2024/01/25 09:37:58;;;;;;;18.23;3.95;;;;;;;5.70;62.01;95630.28;5066633;28;20175;-79
2024/01/25 09:40:23;;;;;;;18.23;4.13;;;;;;;5.84;62.73;95649.25;5055234;28;20044;-78
2024/01/25 09:42:49;;;;;;;10.30;4.13;;;;;;;5.88;62.01;95624.06;5055415;28;20112;-79
2024/01/25 09:45:20;;;;;;;11.50;4.38;;;;;;;5.87;62.17;95630.38;5024642;28;20033;-78
2024/01/25 09:47:45;;;;;;;16.73;4.77;;;;;;;5.80;63.18;95635.72;5046768;28;20040;-78
2024/01/25 09:50:11;;;;;;;21.80;4.90;;;;;;;5.61;63.45;95596.66;5056993;28;20032;-79
2024/01/25 09:52:44;;;;;;;15.60;3.90;;;;;;;6.04;62.06;95656.78;5034846;28;20448;-78
2024/01/25 09:55:13;;;;;;;12.13;3.88;;;;;;;5.70;61.53;95582.91;5036233;28;20580;-80
2024/01/25 09:57:38;;;;;;;16.75;4.32;;;;;;;6.01;62.05;95629.09;5000918;28;20048;-80
2024/01/25 10:00:05;;;;;;;11.73;4.13;;;;;;;5.89;61.94;95594.09;5033041;28;20063;-79
2024/01/25 10:02:31;;;;;;;11.90;3.70;;;;;;;6.08;61.66;95618.41;5023050;28;20442;-79
2024/01/25 10:04:56;;;;;;;13.77;3.88;;;;;;;5.86;61.26;95584.00;5061586;28;20021;-79
2024/01/25 10:07:38;;;;;;;10.55;3.80;;;;;;;5.83;62.14;95592.38;5044779;28;20039;-78
2024/01/25 10:10:05;;;;;;;14.60;3.90;;;;;;;5.67;61.70;95554.41;5041647;28;20089;-78
2024/01/25 10:12:31;;;;;;;15.50;4.82;;;;;;;6.03;62.45;95619.09;5054726;28;20032;-78
2024/01/25 10:14:57;;;;;;;10.43;3.92;;;;;;;5.64;62.43;95541.75;5047096;28;20051;-78
2024/01/25 10:17:23;;;;;;;18.17;4.80;;;;;;;5.98;61.84;95565.56;5029468;28;20497;-78
2024/01/25 10:19:48;;;;;;;12.85;4.45;;;;;;;6.18;62.08;95597.53;5036387;28;20101;-79
2024/01/25 10:22:14;;;;;;;18.48;5.65;;;;;;;6.16;62.62;95586.44;5070880;28;20040;-79
2024/01/25 10:24:40;;;;;;;17.20;4.55;;;;;;;6.25;61.48;95581.59;5041486;28;20050;-79
2024/01/25 10:27:06;;;;;;;21.10;4.93;;;;;;;6.43;62.58;95599.81;5017729;28;20040;-80
2024/01/25 10:29:32;;;;;;;14.57;4.10;;;;;;;6.09;60.88;95541.84;5051266;28;20047;-80
2024/01/25 10:31:58;;;;;;;14.98;5.38;;;;;;;5.95;61.71;95497.59;5049477;28;20235;-80
2024/01/25 10:34:23;;;;;;;17.63;4.40;;;;;;;6.36;60.93;95560.47;5065764;28;20036;-79
2024/01/25 10:36:49;;;;;;;18.08;4.50;;;;;;;6.74;61.39;95583.50;5026439;28;20045;-80
2024/01/25 10:39:15;;;;;;;12.40;4.28;;;;;;;7.02;60.73;95592.38;5043619;28;20043;-80
2024/01/25 10:41:41;;;;;;;12.85;4.32;;;;;;;6.87;60.59;95606.91;5021512;28;20040;-79
2024/01/25 10:44:06;;;;;;;17.63;4.85;;;;;;;6.66;61.27;95593.63;5019021;28;20431;-78
2024/01/25 10:46:32;;;;;;;15.98;4.80;;;;;;;6.70;60.84;95592.94;5027016;28;20032;-80
2024/01/25 10:48:59;;;;;;;16.33;5.40;;;;;;;6.35;61.93;95529.09;5061016;28;20082;-81
2024/01/25 10:51:26;;;;;;;17.40;4.57;;;;;;;6.44;61.66;95554.00;5044551;28;20048;-79
2024/01/25 10:53:51;;;;;;;11.38;3.90;;;;;;;6.72;61.60;95582.13;5046348;28;20245;-80
2024/01/25 10:56:17;;;;;;;16.27;4.38;;;;;;;6.71;61.54;95578.72;5021425;28;20381;-78
2024/01/25 10:58:42;;;;;;;20.65;5.10;;;;;;;6.74;61.07;95582.69;5047800;28;20350;-80
2024/01/25 11:01:11;;;;;;;18.83;4.47;;;;;;;6.73;62.14;95583.72;5035636;28;20135;-83
2024/01/25 11:03:37;;;;;;;19.63;4.18;;;;;;;6.73;61.77;95607.44;5023841;28;20044;-82
2024/01/25 11:06:12;;;;;;;18.15;4.68;;;;;;;6.77;61.45;95585.66;5045888;28;20043;-80
2024/01/25 11:08:38;;;;;;;21.30;5.88;;;;;;;6.09;61.57;95465.47;5053862;28;20044;-81
2024/01/25 11:11:09;;;;;;;14.15;4.47;;;;;;;6.43;61.05;95499.72;5048569;28;20036;-81
2024/01/25 11:14:04;;;;;;;16.92;4.75;;;;;;;6.26;60.09;95494.44;5023108;28;20078;-83
2024/01/25 11:16:34;;;;;;;14.75;5.03;;;;;;;6.23;60.79;95462.53;5037140;28;20404;-82
2024/01/25 11:19:09;;;;;;;10.85;4.03;;;;;;;6.78;60.50;95547.72;5063215;27;20043;-82
2024/01/25 11:21:48;;;;;;;17.90;4.30;;;;;;;6.70;61.32;95542.84;5074359;28;20426;-84
2024/01/25 11:24:21;;;;;;;15.95;5.20;;;;;;;5.96;60.83;95392.03;5058293;27;20104;-82
2024/01/25 11:26:47;;;;;;;15.50;3.95;;;;;;;5.86;60.24;95357.66;5065260;27;20115;-82
2024/01/25 11:29:17;;;;;;;13.43;4.30;;;;;;;5.00;59.55;95256.25;5115322;27;20053;-83